Terminal Aerodrome Forecast
Issued by NWS

Home | Current Version | Previous Version | Text Only | Print | Product List | Glossary On
Versions: 1 2 3 4 5 6 7 8 9 10 11 12 13 14 15 16 17 18 19
000
FTUS46 KMTR 011122
TAFSNS
TAF
KSNS 011122Z 0112/0212 28003KT P6SM OVC010
     FM011800 29004KT P6SM SCT015
     FM012000 29012KT P6SM SCT250
     FM020200 28010KT P6SM BKN015
     FM020400 28006KT P6SM OVC010=

USA.gov is the U.S. government's official web portal to all federal, state and local government web resources and services.